createdAt,value
2017-01-31T00:00:37.585Z,1013.61
2017-01-31T00:01:18.046Z,1013.68
2017-01-31T00:01:58.517Z,1013.64
2017-01-31T00:02:38.999Z,1013.6
2017-01-31T00:03:19.518Z,1013.66
2017-01-31T00:04:00.922Z,1013.69
2017-01-31T00:04:41.410Z,1013.66
2017-01-31T00:05:21.925Z,1013.71
2017-01-31T00:06:02.389Z,1013.66
2017-01-31T00:06:42.904Z,1013.69
2017-01-31T00:07:23.416Z,1013.66
2017-01-31T00:08:03.871Z,1013.7
2017-01-31T00:08:44.371Z,1013.67
2017-01-31T00:09:24.853Z,1013.69
2017-01-31T00:10:05.329Z,1013.69
2017-01-31T00:10:45.859Z,1013.68
2017-01-31T00:11:26.331Z,1013.66
2017-01-31T00:12:06.777Z,1013.64
2017-01-31T00:12:47.277Z,1013.64
2017-01-31T00:13:27.745Z,1013.67
2017-01-31T00:14:08.237Z,1013.62
2017-01-31T00:14:48.756Z,1013.64
2017-01-31T00:15:29.253Z,1013.65
2017-01-31T00:16:10.502Z,1013.65
2017-01-31T00:16:50.965Z,1013.69
2017-01-31T00:17:31.465Z,1013.72
2017-01-31T00:18:11.927Z,1013.7
2017-01-31T00:18:52.448Z,1013.7
2017-01-31T00:19:32.966Z,1013.65
2017-01-31T00:20:13.468Z,1013.73
2017-01-31T00:20:53.963Z,1013.72
2017-01-31T00:21:34.493Z,1013.69
2017-01-31T00:22:14.933Z,1013.72
2017-01-31T00:22:55.506Z,1013.72
2017-01-31T00:23:36.034Z,1013.73
2017-01-31T00:24:16.552Z,1013.76
2017-01-31T00:24:57.073Z,1013.79
2017-01-31T00:25:38.160Z,1013.73
2017-01-31T00:26:18.638Z,1013.77
2017-01-31T00:26:59.649Z,1013.75
2017-01-31T00:27:40.137Z,1013.79
2017-01-31T00:28:20.678Z,1013.77
2017-01-31T00:29:01.193Z,1013.75
2017-01-31T00:29:42.454Z,1013.78
2017-01-31T00:30:22.962Z,1013.82
2017-01-31T00:31:03.447Z,1013.83
2017-01-31T00:31:44.102Z,1013.82
2017-01-31T00:32:24.619Z,1013.86
2017-01-31T00:33:05.096Z,1013.9
2017-01-31T00:33:45.569Z,1013.88
2017-01-31T00:34:26.054Z,1013.91
2017-01-31T00:35:07.387Z,1013.92
2017-01-31T00:35:47.872Z,1013.91
2017-01-31T00:36:28.350Z,1013.93
2017-01-31T00:37:08.850Z,1013.95
2017-01-31T00:37:49.322Z,1013.91
2017-01-31T00:38:29.855Z,1013.95
2017-01-31T00:39:10.353Z,1013.9
2017-01-31T00:39:50.821Z,1013.98
2017-01-31T00:40:31.310Z,1013.98
2017-01-31T00:41:11.801Z,1013.96
2017-01-31T00:41:52.326Z,1013.97
2017-01-31T00:42:32.810Z,1014.02
2017-01-31T00:43:13.311Z,1014.01
2017-01-31T00:43:53.789Z,1014.03
2017-01-31T00:44:34.269Z,1013.93
2017-01-31T00:45:17.267Z,1013.99
2017-01-31T00:45:58.590Z,1014.04
2017-01-31T00:46:39.056Z,1014.03
2017-01-31T00:47:19.562Z,1014.06
2017-01-31T00:48:00.049Z,1014.02
2017-01-31T00:48:40.595Z,1014.02
2017-01-31T00:49:21.063Z,1014.01
2017-01-31T00:50:01.550Z,1014.05
2017-01-31T00:50:42.021Z,1014.01
2017-01-31T00:51:22.564Z,1014.05
2017-01-31T00:52:03.045Z,1014.01
2017-01-31T00:52:43.519Z,1014
2017-01-31T00:53:24.012Z,1013.98
2017-01-31T00:54:04.517Z,1014.04
2017-01-31T00:54:45.018Z,1014.06
2017-01-31T00:55:25.557Z,1014.05
2017-01-31T00:56:06.057Z,1014
2017-01-31T00:56:46.556Z,1014.05
2017-01-31T00:57:27.078Z,1014.06
2017-01-31T00:58:07.575Z,1014.05
2017-01-31T00:58:48.619Z,1014.08
2017-01-31T00:59:29.094Z,1014.06
2017-01-31T01:00:09.587Z,1014.1
2017-01-31T01:00:50.092Z,1014.07
2017-01-31T01:01:30.601Z,1014.02
2017-01-31T01:02:11.116Z,1014.12
2017-01-31T01:02:51.579Z,1014.14
2017-01-31T01:03:32.097Z,1014.1
2017-01-31T01:04:12.581Z,1014.16
2017-01-31T01:04:53.078Z,1014.12
2017-01-31T01:05:33.595Z,1014.13
2017-01-31T01:06:14.073Z,1014.15
2017-01-31T01:06:54.578Z,1014.19
2017-01-31T01:07:35.049Z,1014.18
2017-01-31T01:08:15.569Z,1014.23
2017-01-31T01:08:56.031Z,1014.22
2017-01-31T01:09:36.553Z,1014.22
2017-01-31T01:10:17.548Z,1014.17
2017-01-31T01:10:58.054Z,1014.15
2017-01-31T01:11:38.563Z,1014.23
2017-01-31T01:12:19.005Z,1014.17
2017-01-31T01:12:59.501Z,1014.21
2017-01-31T01:13:39.999Z,1014.21
2017-01-31T01:14:20.516Z,1014.24
2017-01-31T01:15:01.959Z,1014.24
2017-01-31T01:15:42.499Z,1014.23
2017-01-31T01:16:22.995Z,1014.24
2017-01-31T01:17:03.473Z,1014.21
2017-01-31T01:17:44.167Z,1014.24
2017-01-31T01:18:24.653Z,1014.27
2017-01-31T01:19:05.142Z,1014.29
2017-01-31T01:19:45.642Z,1014.26
2017-01-31T01:20:26.096Z,1014.34
2017-01-31T01:21:06.591Z,1014.32
2017-01-31T01:21:47.096Z,1014.37
2017-01-31T01:22:28.079Z,1014.4
2017-01-31T01:23:08.709Z,1014.36
2017-01-31T01:23:49.062Z,1014.37
2017-01-31T01:24:29.550Z,1014.39
2017-01-31T01:25:10.019Z,1014.41
2017-01-31T01:25:50.518Z,1014.42
2017-01-31T01:26:31.005Z,1014.43
2017-01-31T01:27:12.400Z,1014.48
2017-01-31T01:27:52.898Z,1014.46
2017-01-31T01:28:33.424Z,1014.41
2017-01-31T01:29:13.929Z,1014.5
2017-01-31T01:29:54.436Z,1014.5
2017-01-31T01:30:34.927Z,1014.52
2017-01-31T01:31:15.403Z,1014.52
2017-01-31T01:31:55.913Z,1014.52
2017-01-31T01:32:36.434Z,1014.49
2017-01-31T01:33:16.908Z,1014.54
2017-01-31T01:33:57.426Z,1014.53
2017-01-31T01:34:37.956Z,1014.57
2017-01-31T01:35:18.445Z,1014.55
2017-01-31T01:35:58.992Z,1014.54
2017-01-31T01:36:39.467Z,1014.58
2017-01-31T01:37:19.992Z,1014.57
2017-01-31T01:38:00.524Z,1014.6
2017-01-31T01:38:41.031Z,1014.61
2017-01-31T01:39:22.146Z,1014.58
2017-01-31T01:40:02.646Z,1014.6
2017-01-31T01:40:43.153Z,1014.6
2017-01-31T01:41:23.647Z,1014.65
2017-01-31T01:42:04.983Z,1014.57
2017-01-31T01:42:45.472Z,1014.6
2017-01-31T01:43:25.992Z,1014.6
2017-01-31T01:44:06.445Z,1014.62
2017-01-31T01:44:46.955Z,1014.58
2017-01-31T01:45:27.429Z,1014.58
2017-01-31T01:46:07.966Z,1014.59
2017-01-31T01:46:48.431Z,1014.6
2017-01-31T01:47:28.902Z,1014.59
2017-01-31T01:48:09.398Z,1014.57
2017-01-31T01:48:49.883Z,1014.54
2017-01-31T01:49:30.352Z,1014.6
2017-01-31T01:50:10.884Z,1014.57
2017-01-31T01:50:51.371Z,1014.56
2017-01-31T01:51:31.845Z,1014.55
2017-01-31T01:52:12.331Z,1014.49
2017-01-31T01:52:52.860Z,1014.58
2017-01-31T01:53:33.316Z,1014.59
2017-01-31T01:54:13.805Z,1014.57
2017-01-31T01:54:54.313Z,1014.59
2017-01-31T01:55:34.811Z,1014.59
2017-01-31T01:57:27.967Z,1014.54
2017-01-31T01:58:08.486Z,1014.62
2017-01-31T01:58:49.814Z,1014.6
2017-01-31T01:59:30.285Z,1014.56
2017-01-31T02:00:10.819Z,1014.56
2017-01-31T02:00:51.300Z,1014.6
2017-01-31T02:01:31.796Z,1014.67
2017-01-31T02:02:12.280Z,1014.62
2017-01-31T02:02:52.763Z,1014.65
2017-01-31T02:03:33.253Z,1014.53
2017-01-31T02:04:13.753Z,1014.58
2017-01-31T02:04:54.282Z,1014.57
2017-01-31T02:05:34.743Z,1014.6
2017-01-31T02:06:15.243Z,1014.54
2017-01-31T02:06:55.729Z,1014.61
2017-01-31T02:07:36.228Z,1014.54
2017-01-31T02:08:16.714Z,1014.57
2017-01-31T02:08:57.211Z,1014.56
2017-01-31T02:09:37.723Z,1014.57
2017-01-31T02:10:18.190Z,1014.58
2017-01-31T02:10:58.752Z,1014.58
2017-01-31T02:11:39.294Z,1014.59
2017-01-31T02:12:20.418Z,1014.55
2017-01-31T02:13:00.900Z,1014.58
2017-01-31T02:15:31.263Z,1014.6
2017-01-31T02:16:11.778Z,1014.5
2017-01-31T02:16:52.235Z,1014.57
2017-01-31T02:17:32.722Z,1014.58
2017-01-31T02:18:13.226Z,1014.63
2017-01-31T02:18:53.726Z,1014.67
2017-01-31T02:19:34.229Z,1014.62
2017-01-31T02:20:14.673Z,1014.65
2017-01-31T02:20:55.156Z,1014.63
2017-01-31T02:21:35.654Z,1014.62
2017-01-31T02:22:16.130Z,1014.67
2017-01-31T02:22:57.378Z,1014.66
2017-01-31T02:23:37.863Z,1014.7
2017-01-31T02:24:18.382Z,1014.66
2017-01-31T02:24:58.845Z,1014.66
2017-01-31T02:25:39.377Z,1014.64
2017-01-31T02:26:19.926Z,1014.64
2017-01-31T02:27:00.358Z,1014.67
2017-01-31T02:27:40.891Z,1014.69
2017-01-31T02:28:21.382Z,1014.62
2017-01-31T02:29:01.929Z,1014.59
2017-01-31T02:29:42.435Z,1014.61
2017-01-31T02:30:22.913Z,1014.61
2017-01-31T02:31:03.480Z,1014.62
2017-01-31T02:31:44.621Z,1014.62
2017-01-31T02:32:25.122Z,1014.62
2017-01-31T02:33:05.565Z,1014.64
2017-01-31T02:33:46.101Z,1014.65
2017-01-31T02:34:26.643Z,1014.66
2017-01-31T02:35:07.096Z,1014.63
2017-01-31T02:35:47.632Z,1014.63
2017-01-31T02:36:28.118Z,1014.66
2017-01-31T02:37:08.814Z,1014.64
2017-01-31T02:37:49.604Z,1014.63
2017-01-31T02:38:30.138Z,1014.61
2017-01-31T02:39:10.704Z,1014.67
2017-01-31T02:39:51.790Z,1014.7
2017-01-31T02:40:32.293Z,1014.7
2017-01-31T02:41:12.775Z,1014.65
2017-01-31T02:41:53.829Z,1014.69
2017-01-31T02:42:34.294Z,1014.73
2017-01-31T02:43:14.823Z,1014.71
2017-01-31T02:43:55.284Z,1014.66
2017-01-31T02:44:35.786Z,1014.67
2017-01-31T02:45:16.284Z,1014.71
2017-01-31T02:45:56.820Z,1014.68
2017-01-31T02:46:37.351Z,1014.74
2017-01-31T02:47:17.843Z,1014.68
2017-01-31T02:47:58.320Z,1014.7
2017-01-31T02:48:38.799Z,1014.7
2017-01-31T02:49:19.282Z,1014.68
2017-01-31T02:49:59.736Z,1014.71
2017-01-31T02:50:40.271Z,1014.75
2017-01-31T02:51:20.752Z,1014.73
2017-01-31T02:52:01.214Z,1014.74
2017-01-31T02:52:41.726Z,1014.68
2017-01-31T02:53:22.236Z,1014.68
2017-01-31T02:54:02.726Z,1014.71
2017-01-31T02:54:43.263Z,1014.72
2017-01-31T02:55:23.766Z,1014.75
2017-01-31T02:56:05.097Z,1014.69
2017-01-31T02:56:45.587Z,1014.73
2017-01-31T02:57:26.126Z,1014.67
2017-01-31T02:58:06.611Z,1014.72
2017-01-31T02:58:47.079Z,1014.69
2017-01-31T02:59:28.495Z,1014.72
2017-01-31T03:00:09.875Z,1014.7
2017-01-31T03:00:50.353Z,1014.75
2017-01-31T03:01:30.852Z,1014.77
2017-01-31T03:02:11.361Z,1014.78
2017-01-31T03:02:51.850Z,1014.78
2017-01-31T03:03:32.990Z,1014.82
2017-01-31T03:04:14.110Z,1014.79
2017-01-31T03:04:54.574Z,1014.79
2017-01-31T03:05:35.077Z,1014.76
2017-01-31T03:06:15.572Z,1014.77
2017-01-31T03:06:56.099Z,1014.76
2017-01-31T03:07:36.579Z,1014.82
2017-01-31T03:08:17.075Z,1014.8
2017-01-31T03:08:58.498Z,1014.77
2017-01-31T03:09:39.006Z,1014.76
2017-01-31T03:10:20.296Z,1014.79
2017-01-31T03:11:00.782Z,1014.78
2017-01-31T03:11:41.266Z,1014.77
2017-01-31T03:12:21.786Z,1014.82
2017-01-31T03:13:02.987Z,1014.82
2017-01-31T03:13:43.528Z,1014.81
2017-01-31T03:14:23.991Z,1014.84
2017-01-31T03:15:04.527Z,1014.84
2017-01-31T03:15:44.958Z,1014.85
2017-01-31T03:16:25.447Z,1014.8
2017-01-31T03:17:05.934Z,1014.79
2017-01-31T03:17:46.466Z,1014.8
2017-01-31T03:18:26.940Z,1014.82
2017-01-31T03:19:07.410Z,1014.87
2017-01-31T03:19:47.923Z,1014.83
2017-01-31T03:20:28.447Z,1014.86
2017-01-31T03:21:08.925Z,1014.84
2017-01-31T03:21:49.421Z,1014.88
2017-01-31T03:22:29.888Z,1014.96
2017-01-31T03:23:11.019Z,1014.9
2017-01-31T03:23:51.468Z,1014.95
2017-01-31T03:24:32.789Z,1014.93
2017-01-31T03:25:13.302Z,1014.9
2017-01-31T03:25:53.845Z,1014.88
2017-01-31T03:26:34.317Z,1014.93
2017-01-31T03:27:14.832Z,1014.95
2017-01-31T03:27:55.330Z,1014.95
2017-01-31T03:28:35.786Z,1014.98
2017-01-31T03:29:16.304Z,1014.94
2017-01-31T03:29:58.512Z,1014.97
2017-01-31T03:30:38.989Z,1014.94
2017-01-31T03:31:19.465Z,1014.96
2017-01-31T03:31:59.972Z,1014.92
2017-01-31T03:32:40.502Z,1014.96
2017-01-31T03:33:21.678Z,1014.94
2017-01-31T03:34:02.182Z,1014.95
2017-01-31T03:34:42.661Z,1014.93
2017-01-31T03:35:23.152Z,1014.97
2017-01-31T03:36:03.670Z,1014.92
2017-01-31T03:36:44.136Z,1014.95
2017-01-31T03:37:24.641Z,1014.95
2017-01-31T03:38:05.123Z,1014.97
2017-01-31T03:38:45.570Z,1014.95
2017-01-31T03:39:26.108Z,1014.95
2017-01-31T03:40:06.618Z,1014.9
2017-01-31T03:40:47.077Z,1014.92
2017-01-31T03:41:27.571Z,1014.95
2017-01-31T03:42:08.033Z,1014.98
2017-01-31T03:42:48.512Z,1015.01
2017-01-31T03:43:29.006Z,1015
2017-01-31T03:44:09.489Z,1014.99
2017-01-31T03:44:49.982Z,1015.02
2017-01-31T03:45:31.211Z,1015.06
2017-01-31T03:46:11.699Z,1015.1
2017-01-31T03:46:52.191Z,1015.06
2017-01-31T03:47:32.717Z,1015.09
2017-01-31T03:48:13.869Z,1015.05
2017-01-31T03:48:54.368Z,1015.04
2017-01-31T03:49:34.883Z,1015.14
2017-01-31T03:50:15.417Z,1015.06
2017-01-31T03:50:55.893Z,1015.12
2017-01-31T03:51:37.182Z,1015.12
2017-01-31T03:52:17.663Z,1015.09
2017-01-31T03:52:58.772Z,1015.06
2017-01-31T03:53:40.170Z,1015.12
2017-01-31T03:54:20.663Z,1015.12
2017-01-31T03:55:01.189Z,1015.15
2017-01-31T03:55:41.717Z,1015.13
2017-01-31T03:56:22.175Z,1015.14
2017-01-31T03:57:02.676Z,1015.18
2017-01-31T03:57:43.154Z,1015.2
2017-01-31T03:58:23.644Z,1015.13
2017-01-31T03:59:04.121Z,1015.19
2017-01-31T03:59:44.597Z,1015.15
2017-01-31T04:00:25.112Z,1015.17
2017-01-31T04:01:05.611Z,1015.13
2017-01-31T04:01:47.021Z,1015.2
2017-01-31T04:02:27.533Z,1015.18
2017-01-31T04:03:08.021Z,1015.18
2017-01-31T04:03:48.549Z,1015.12
2017-01-31T04:04:29.032Z,1015.15
2017-01-31T04:05:09.513Z,1015.17
2017-01-31T04:05:49.993Z,1015.13
2017-01-31T04:06:30.502Z,1015.16
2017-01-31T04:07:11.098Z,1015.2
2017-01-31T04:07:51.558Z,1015.17
2017-01-31T04:08:32.026Z,1015.2
2017-01-31T04:09:12.510Z,1015.19
2017-01-31T04:09:53.002Z,1015.18
2017-01-31T04:10:33.580Z,1015.22
2017-01-31T04:11:14.061Z,1015.2
2017-01-31T04:11:54.541Z,1015.22
2017-01-31T04:12:35.063Z,1015.19
2017-01-31T04:13:15.603Z,1015.17
2017-01-31T04:13:56.144Z,1015.22
2017-01-31T04:14:37.382Z,1015.2
2017-01-31T04:15:17.892Z,1015.24
2017-01-31T04:15:58.390Z,1015.25
2017-01-31T04:16:38.870Z,1015.27
2017-01-31T04:17:20.278Z,1015.26
2017-01-31T04:18:00.752Z,1015.29
2017-01-31T04:18:42.092Z,1015.24
2017-01-31T04:19:22.609Z,1015.28
2017-01-31T04:20:03.100Z,1015.32
2017-01-31T04:20:44.311Z,1015.24
2017-01-31T04:21:24.833Z,1015.29
2017-01-31T04:22:05.359Z,1015.28
2017-01-31T04:22:45.899Z,1015.28
2017-01-31T04:23:26.408Z,1015.32
2017-01-31T04:24:06.902Z,1015.28
2017-01-31T04:24:47.394Z,1015.31
2017-01-31T04:25:28.603Z,1015.3
2017-01-31T04:28:37.682Z,1015.37
2017-01-31T04:29:18.104Z,1015.33
2017-01-31T04:29:58.595Z,1015.32
2017-01-31T04:30:39.084Z,1015.37
2017-01-31T04:31:19.581Z,1015.42
2017-01-31T04:32:00.077Z,1015.41
2017-01-31T04:32:40.591Z,1015.41
2017-01-31T04:33:21.078Z,1015.49
2017-01-31T04:34:01.599Z,1015.46
2017-01-31T04:34:43.910Z,1015.45
2017-01-31T04:35:25.234Z,1015.43
2017-01-31T04:36:06.705Z,1015.45
2017-01-31T04:36:47.192Z,1015.46
2017-01-31T04:37:28.215Z,1015.51
2017-01-31T04:38:09.520Z,1015.47
2017-01-31T04:38:50.006Z,1015.49
2017-01-31T04:39:30.518Z,1015.48
2017-01-31T04:40:11.997Z,1015.49
2017-01-31T04:40:53.117Z,1015.51
2017-01-31T04:41:34.202Z,1015.5
2017-01-31T04:42:14.741Z,1015.51
2017-01-31T04:42:55.272Z,1015.49
2017-01-31T04:43:35.797Z,1015.48
2017-01-31T04:44:16.301Z,1015.48
2017-01-31T04:44:56.766Z,1015.51
2017-01-31T04:45:37.260Z,1015.53
2017-01-31T04:46:17.774Z,1015.52
2017-01-31T04:46:58.293Z,1015.54
2017-01-31T04:47:38.781Z,1015.55
2017-01-31T04:48:19.288Z,1015.51
2017-01-31T04:48:59.758Z,1015.54
2017-01-31T04:49:40.242Z,1015.54
2017-01-31T04:50:20.729Z,1015.51
2017-01-31T04:51:01.268Z,1015.53
2017-01-31T04:51:41.760Z,1015.6
2017-01-31T04:52:22.265Z,1015.58
2017-01-31T04:53:02.770Z,1015.59
2017-01-31T04:53:44.145Z,1015.55
2017-01-31T04:54:24.639Z,1015.62
2017-01-31T04:55:05.761Z,1015.58
2017-01-31T04:55:46.303Z,1015.62
2017-01-31T04:56:26.840Z,1015.62
2017-01-31T04:57:08.195Z,1015.6
2017-01-31T04:57:49.496Z,1015.6
2017-01-31T04:58:29.991Z,1015.63
2017-01-31T04:59:10.476Z,1015.64
2017-01-31T04:59:51.024Z,1015.63
2017-01-31T05:00:31.498Z,1015.65
2017-01-31T05:01:11.993Z,1015.64
2017-01-31T05:01:52.506Z,1015.67
2017-01-31T05:02:33.046Z,1015.62
2017-01-31T05:03:13.524Z,1015.68
2017-01-31T05:03:54.009Z,1015.67
2017-01-31T05:04:34.494Z,1015.68
2017-01-31T05:05:14.999Z,1015.68
2017-01-31T05:05:55.467Z,1015.65
2017-01-31T05:06:35.950Z,1015.71
2017-01-31T05:07:16.464Z,1015.71
2017-01-31T05:07:56.970Z,1015.69
2017-01-31T05:08:38.012Z,1015.7
2017-01-31T05:09:18.505Z,1015.69
2017-01-31T05:09:58.958Z,1015.71
2017-01-31T05:10:40.313Z,1015.71
2017-01-31T05:11:22.535Z,1015.73
2017-01-31T05:12:16.295Z,1015.74
2017-01-31T05:13:00.300Z,1015.75
2017-01-31T05:13:42.289Z,1015.79
2017-01-31T05:14:26.203Z,1015.8
2017-01-31T05:15:07.558Z,1015.77
2017-01-31T05:17:39.264Z,1015.82
2017-01-31T05:18:22.408Z,1015.82
2017-01-31T05:19:03.393Z,1015.81
2017-01-31T05:19:44.539Z,1015.82
2017-01-31T05:20:25.047Z,1015.86
2017-01-31T05:21:05.599Z,1015.82
2017-01-31T05:21:46.174Z,1015.85
2017-01-31T05:22:26.745Z,1015.85
2017-01-31T05:23:07.204Z,1015.84
2017-01-31T05:23:47.660Z,1015.86
2017-01-31T05:25:42.813Z,1015.86
2017-01-31T05:26:23.878Z,1015.86
2017-01-31T05:27:04.427Z,1015.83
2017-01-31T05:27:44.926Z,1015.86
2017-01-31T05:28:25.468Z,1015.85
2017-01-31T05:29:06.905Z,1015.93
2017-01-31T05:29:48.252Z,1015.93
2017-01-31T05:30:29.743Z,1015.89
2017-01-31T05:31:12.020Z,1015.9
2017-01-31T05:31:54.295Z,1015.85
2017-01-31T05:32:34.956Z,1015.85
2017-01-31T05:33:15.436Z,1015.91
2017-01-31T05:33:55.950Z,1015.9
2017-01-31T05:34:37.220Z,1015.88
2017-01-31T05:35:17.684Z,1015.9
2017-01-31T05:35:58.287Z,1015.91
2017-01-31T05:36:38.832Z,1015.93
2017-01-31T05:37:20.191Z,1015.93
2017-01-31T05:38:01.284Z,1015.92
2017-01-31T05:38:41.821Z,1015.96
2017-01-31T05:39:22.428Z,1015.93
2017-01-31T05:40:08.486Z,1015.92
2017-01-31T05:40:49.042Z,1015.93
2017-01-31T05:41:32.099Z,1015.93
2017-01-31T05:42:12.595Z,1015.92
2017-01-31T05:42:53.096Z,1015.96
2017-01-31T05:43:34.248Z,1015.93
2017-01-31T05:44:14.727Z,1015.92
2017-01-31T05:44:55.261Z,1015.97
2017-01-31T05:45:35.773Z,1015.95
2017-01-31T05:46:19.293Z,1015.93
2017-01-31T05:46:59.774Z,1015.93
2017-01-31T05:47:41.124Z,1015.95
2017-01-31T05:48:21.601Z,1015.94
2017-01-31T05:49:02.145Z,1015.94
2017-01-31T05:49:42.881Z,1015.96
2017-01-31T05:50:24.211Z,1015.97
2017-01-31T05:51:06.291Z,1016.04
2017-01-31T05:51:46.860Z,1016.03
2017-01-31T05:52:27.454Z,1016.01
2017-01-31T05:53:07.981Z,1016.02
2017-01-31T05:53:49.314Z,1016.06
2017-01-31T05:54:31.757Z,1016.09
2017-01-31T05:55:13.179Z,1016.07
2017-01-31T05:55:54.604Z,1016.11
2017-01-31T05:56:35.693Z,1016.09
2017-01-31T05:57:16.919Z,1016.14
2017-01-31T05:57:58.282Z,1016.1
2017-01-31T05:58:38.764Z,1016.13
2017-01-31T05:59:19.583Z,1016.12
2017-01-31T06:00:05.791Z,1016.13
2017-01-31T06:00:47.785Z,1016.11
2017-01-31T06:01:28.935Z,1016.15
2017-01-31T06:02:10.993Z,1016.15
2017-01-31T06:04:11.535Z,1016.13
2017-01-31T06:04:52.707Z,1016.17
2017-01-31T06:05:34.644Z,1016.15
2017-01-31T06:06:15.160Z,1016.18
2017-01-31T06:06:56.238Z,1016.17
2017-01-31T06:07:36.761Z,1016.15
2017-01-31T06:08:20.584Z,1016.21
2017-01-31T06:09:01.703Z,1016.17
2017-01-31T06:09:42.248Z,1016.19
2017-01-31T06:10:25.995Z,1016.13
2017-01-31T06:11:07.272Z,1016.17
2017-01-31T06:11:49.397Z,1016.17
2017-01-31T06:12:30.765Z,1016.17
2017-01-31T06:13:12.000Z,1016.18
2017-01-31T06:13:55.017Z,1016.21
2017-01-31T06:14:37.897Z,1016.18
2017-01-31T06:17:08.434Z,1016.24
2017-01-31T06:17:50.521Z,1016.25
2017-01-31T06:18:31.004Z,1016.28
2017-01-31T06:19:11.508Z,1016.26
2017-01-31T06:19:54.802Z,1016.3
2017-01-31T06:20:36.200Z,1016.26
2017-01-31T06:21:18.013Z,1016.26
2017-01-31T06:22:01.420Z,1016.29
2017-01-31T06:22:45.448Z,1016.2
2017-01-31T06:23:27.642Z,1016.27
2017-01-31T06:24:09.688Z,1016.32
2017-01-31T06:24:50.207Z,1016.3
2017-01-31T06:25:30.670Z,1016.3
2017-01-31T06:26:14.594Z,1016.28
2017-01-31T06:26:55.732Z,1016.31
2017-01-31T06:27:36.237Z,1016.36
2017-01-31T06:28:17.681Z,1016.36
2017-01-31T06:28:58.210Z,1016.36
2017-01-31T06:29:39.430Z,1016.36
2017-01-31T06:30:19.927Z,1016.36
2017-01-31T06:31:00.384Z,1016.39
2017-01-31T06:31:43.288Z,1016.39
2017-01-31T06:32:24.706Z,1016.41
2017-01-31T06:33:05.179Z,1016.39
2017-01-31T06:33:45.667Z,1016.38
2017-01-31T06:34:27.805Z,1016.37
2017-01-31T06:35:09.287Z,1016.38
2017-01-31T06:35:52.800Z,1016.36
2017-01-31T06:36:34.948Z,1016.31
2017-01-31T06:37:18.827Z,1016.38
2017-01-31T06:38:00.816Z,1016.4
2017-01-31T06:38:42.803Z,1016.35
2017-01-31T06:39:26.062Z,1016.36
2017-01-31T06:40:07.920Z,1016.41
2017-01-31T06:40:49.826Z,1016.38
2017-01-31T06:41:37.332Z,1016.37
2017-01-31T06:42:17.918Z,1016.36
2017-01-31T06:42:58.447Z,1016.44
2017-01-31T06:43:38.915Z,1016.39
2017-01-31T06:44:21.096Z,1016.33
2017-01-31T06:45:04.300Z,1016.39
2017-01-31T06:45:45.499Z,1016.4
2017-01-31T06:46:26.098Z,1016.41
2017-01-31T06:47:06.679Z,1016.34
2017-01-31T06:47:49.812Z,1016.43
2017-01-31T06:48:33.089Z,1016.39
2017-01-31T06:49:14.473Z,1016.38
2017-01-31T06:49:54.914Z,1016.39
2017-01-31T06:50:36.339Z,1016.42
2017-01-31T06:51:19.536Z,1016.47
2017-01-31T06:52:01.864Z,1016.43
2017-01-31T06:52:42.401Z,1016.44
2017-01-31T06:53:22.893Z,1016.44
2017-01-31T06:54:04.815Z,1016.45
2017-01-31T06:54:46.053Z,1016.45
2017-01-31T06:55:27.312Z,1016.51
2017-01-31T06:56:08.309Z,1016.5
2017-01-31T06:56:52.476Z,1016.5
2017-01-31T06:57:33.724Z,1016.52
2017-01-31T06:58:18.827Z,1016.5
2017-01-31T06:58:59.332Z,1016.47
2017-01-31T06:59:42.510Z,1016.52
2017-01-31T07:00:23.044Z,1016.53
2017-01-31T07:01:04.033Z,1016.54
2017-01-31T07:01:47.259Z,1016.56
2017-01-31T07:02:28.420Z,1016.55
2017-01-31T07:03:09.139Z,1016.57
2017-01-31T07:03:50.241Z,1016.55
2017-01-31T07:04:31.644Z,1016.61
2017-01-31T07:05:18.705Z,1016.61
2017-01-31T07:06:00.229Z,1016.59
2017-01-31T07:06:41.427Z,1016.6
2017-01-31T07:07:21.906Z,1016.55
2017-01-31T07:08:06.034Z,1016.6
2017-01-31T07:08:48.033Z,1016.62
2017-01-31T07:09:28.507Z,1016.63
2017-01-31T07:10:10.523Z,1016.6
2017-01-31T07:10:51.028Z,1016.62
2017-01-31T07:11:38.786Z,1016.6
2017-01-31T07:12:19.933Z,1016.6
2017-01-31T07:13:01.191Z,1016.66
2017-01-31T07:13:42.514Z,1016.63
2017-01-31T07:14:26.524Z,1016.65
2017-01-31T07:15:13.640Z,1016.66
2017-01-31T07:15:56.081Z,1016.66
2017-01-31T07:16:37.308Z,1016.67
2017-01-31T07:17:18.522Z,1016.64
2017-01-31T07:18:00.426Z,1016.65
2017-01-31T07:18:42.333Z,1016.63
2017-01-31T07:19:22.822Z,1016.63
2017-01-31T07:20:04.130Z,1016.62
2017-01-31T07:20:44.610Z,1016.65
2017-01-31T07:21:29.634Z,1016.61
2017-01-31T07:22:10.733Z,1016.63
2017-01-31T07:22:53.038Z,1016.62
2017-01-31T07:23:33.554Z,1016.62
2017-01-31T07:24:16.732Z,1016.66
2017-01-31T07:24:57.290Z,1016.68
2017-01-31T07:25:37.759Z,1016.69
2017-01-31T07:26:19.217Z,1016.68
2017-01-31T07:27:00.618Z,1016.65
2017-01-31T07:27:44.606Z,1016.66
2017-01-31T07:28:25.075Z,1016.68
2017-01-31T07:29:05.625Z,1016.66
2017-01-31T07:29:46.118Z,1016.67
2017-01-31T07:30:26.580Z,1016.68
2017-01-31T07:31:07.605Z,1016.73
2017-01-31T07:31:48.080Z,1016.7
2017-01-31T07:32:28.566Z,1016.73
2017-01-31T07:33:09.923Z,1016.72
2017-01-31T07:33:51.220Z,1016.75
2017-01-31T07:34:33.317Z,1016.7
2017-01-31T07:35:13.859Z,1016.78
2017-01-31T07:35:55.272Z,1016.78
2017-01-31T07:36:35.755Z,1016.75
2017-01-31T07:37:16.280Z,1016.79
2017-01-31T07:37:56.765Z,1016.81
2017-01-31T07:38:37.296Z,1016.82
2017-01-31T07:39:17.822Z,1016.8
2017-01-31T07:39:58.966Z,1016.79
2017-01-31T07:40:41.125Z,1016.81
2017-01-31T07:41:23.329Z,1016.79
2017-01-31T07:42:03.775Z,1016.77
2017-01-31T07:42:44.292Z,1016.8
2017-01-31T07:43:24.804Z,1016.77
2017-01-31T07:44:06.801Z,1016.8
2017-01-31T07:44:48.801Z,1016.83
2017-01-31T07:45:29.435Z,1016.87
2017-01-31T07:46:12.310Z,1016.79
2017-01-31T07:46:54.301Z,1016.83
2017-01-31T07:47:38.553Z,1016.82
2017-01-31T07:48:19.807Z,1016.8
2017-01-31T07:49:01.821Z,1016.79
2017-01-31T07:49:44.807Z,1016.87
2017-01-31T07:50:30.162Z,1016.86
2017-01-31T07:51:10.647Z,1016.86
2017-01-31T07:51:51.931Z,1016.88
2017-01-31T07:52:32.452Z,1016.88
2017-01-31T07:53:12.930Z,1016.87
2017-01-31T07:53:56.160Z,1016.91
2017-01-31T07:54:37.800Z,1016.89
2017-01-31T07:55:19.950Z,1016.86
2017-01-31T07:56:00.411Z,1016.93
2017-01-31T07:56:41.924Z,1016.93
2017-01-31T07:57:23.956Z,1016.89
2017-01-31T07:58:05.462Z,1016.91
2017-01-31T07:58:46.882Z,1016.93
2017-01-31T07:59:27.065Z,1016.94
2017-01-31T08:00:08.543Z,1016.98
2017-01-31T08:00:49.115Z,1017.01
2017-01-31T08:01:29.603Z,1016.95
2017-01-31T08:02:10.095Z,1016.97
2017-01-31T08:02:50.641Z,1017
2017-01-31T08:03:31.178Z,1017.11
2017-01-31T08:04:12.303Z,1017.09
2017-01-31T08:04:52.802Z,1017.11
2017-01-31T08:05:33.347Z,1017.11
2017-01-31T08:06:13.900Z,1017
2017-01-31T08:06:54.555Z,1017.11
2017-01-31T08:07:36.315Z,1017.04
2017-01-31T08:08:17.713Z,1017.04
2017-01-31T08:08:58.225Z,1017.03
2017-01-31T08:09:38.763Z,1017.03
2017-01-31T08:10:19.291Z,1016.99
2017-01-31T08:10:59.762Z,1017.02
2017-01-31T08:11:40.256Z,1017.02
2017-01-31T08:12:21.728Z,1017.03
2017-01-31T08:13:02.164Z,1017.04
2017-01-31T08:13:43.063Z,1017.04
2017-01-31T08:14:23.805Z,1017.09
2017-01-31T08:15:04.341Z,1017.05
2017-01-31T08:15:44.829Z,1017.05
2017-01-31T08:16:25.346Z,1017.04
2017-01-31T08:17:05.840Z,1017.04
2017-01-31T08:17:46.358Z,1017.06
2017-01-31T08:18:26.908Z,1017.05
2017-01-31T08:19:07.379Z,1017.09
2017-01-31T08:19:47.916Z,1017.06
2017-01-31T08:20:28.437Z,1017.04
2017-01-31T08:21:08.963Z,1017.1
2017-01-31T08:21:50.435Z,1017.06
2017-01-31T08:22:31.670Z,1017.06
2017-01-31T08:23:12.216Z,1017.08
2017-01-31T08:23:52.706Z,1017.07
2017-01-31T08:24:34.201Z,1017.02
2017-01-31T08:25:15.634Z,1017.07
2017-01-31T08:25:56.203Z,1016.99
2017-01-31T08:26:36.759Z,1016.98
2017-01-31T08:27:19.067Z,1017
2017-01-31T08:28:01.880Z,1016.95
2017-01-31T08:28:42.711Z,1016.97
2017-01-31T08:29:24.212Z,1016.92